createdAt,value
2023-07-12T00:02:33.278Z,17.39
2023-07-12T00:05:07.438Z,17.61
2023-07-12T00:07:40.149Z,17.41
2023-07-12T00:10:26.087Z,17.48
2023-07-12T00:12:56.422Z,17.49
2023-07-12T00:15:40.237Z,17.50
2023-07-12T00:18:17.495Z,17.37
2023-07-12T00:20:50.486Z,17.70
2023-07-12T00:23:27.972Z,17.49
2023-07-12T00:25:54.611Z,17.43
2023-07-12T00:28:32.262Z,17.47
2023-07-12T00:31:08.063Z,17.53
2023-07-12T00:33:56.029Z,17.52
2023-07-12T00:36:38.754Z,17.51
2023-07-12T00:39:08.147Z,17.80
2023-07-12T00:42:07.252Z,17.81
2023-07-12T00:44:38.892Z,17.77
2023-07-12T00:47:05.698Z,17.75
2023-07-12T00:49:32.444Z,17.76
2023-07-12T00:52:12.711Z,17.78
2023-07-12T00:54:59.995Z,17.85
2023-07-12T00:57:28.996Z,17.87
2023-07-12T01:00:00.833Z,17.81
2023-07-12T01:02:28.020Z,17.83
2023-07-12T01:04:58.829Z,17.87
2023-07-12T01:07:28.448Z,17.98
2023-07-12T01:09:55.132Z,17.88
2023-07-12T01:12:21.744Z,17.89
2023-07-12T01:14:48.618Z,17.80
2023-07-12T01:17:15.376Z,17.71
2023-07-12T01:19:42.114Z,17.67
2023-07-12T01:22:09.538Z,17.62
2023-07-12T01:24:37.692Z,17.50
2023-07-12T01:27:15.442Z,17.46
2023-07-12T01:29:42.448Z,17.42
2023-07-12T01:32:09.720Z,17.37
2023-07-12T01:34:36.399Z,17.29
2023-07-12T01:37:05.929Z,17.21
2023-07-12T01:39:34.485Z,17.24
2023-07-12T01:42:01.347Z,17.16
2023-07-12T01:44:28.026Z,17.06
2023-07-12T01:46:55.817Z,17.02
2023-07-12T01:49:22.594Z,17.09
2023-07-12T01:51:50.112Z,17.11
2023-07-12T01:54:16.720Z,16.99
2023-07-12T01:56:43.321Z,17.01
2023-07-12T01:59:09.898Z,17.00
2023-07-12T02:01:36.535Z,17.02
2023-07-12T02:04:03.390Z,17.00
2023-07-12T02:06:29.986Z,16.95
2023-07-12T02:08:56.670Z,16.91
2023-07-12T02:11:23.389Z,16.94
2023-07-12T02:13:50.192Z,16.91
2023-07-12T02:16:17.220Z,16.88
2023-07-12T02:18:43.843Z,16.86
2023-07-12T02:21:10.865Z,16.88
2023-07-12T02:23:37.661Z,16.84
2023-07-12T02:26:04.468Z,16.78
2023-07-12T02:28:31.088Z,16.75
2023-07-12T02:31:15.670Z,16.76
2023-07-12T02:33:42.295Z,16.78
2023-07-12T02:36:08.854Z,16.75
2023-07-12T02:38:35.509Z,16.77
2023-07-12T02:41:02.164Z,16.76
2023-07-12T02:43:28.846Z,16.68
2023-07-12T02:45:55.464Z,16.68
2023-07-12T02:48:22.103Z,16.74
2023-07-12T02:50:48.719Z,16.72
2023-07-12T02:53:19.621Z,16.66
2023-07-12T02:55:51.176Z,16.68
2023-07-12T02:58:19.424Z,16.67
2023-07-12T03:00:46.095Z,16.71
2023-07-12T03:03:12.785Z,16.71
2023-07-12T03:05:40.931Z,16.80
2023-07-12T03:08:08.794Z,16.82
2023-07-12T03:10:38.771Z,16.78
2023-07-12T03:13:05.455Z,16.83
2023-07-12T03:15:32.125Z,16.83
2023-07-12T03:17:59.102Z,16.85
2023-07-12T03:20:25.862Z,16.86
2023-07-12T03:22:52.508Z,16.84
2023-07-12T03:25:19.098Z,16.87
2023-07-12T03:27:48.500Z,16.79
2023-07-12T03:30:15.503Z,16.86
2023-07-12T03:32:42.153Z,16.74
2023-07-12T03:35:09.340Z,16.77
2023-07-12T03:37:35.984Z,16.76
2023-07-12T03:40:03.057Z,16.74
2023-07-12T03:42:29.682Z,16.73
2023-07-12T03:44:56.266Z,16.71
2023-07-12T03:47:24.975Z,16.69
2023-07-12T03:49:51.868Z,16.70
2023-07-12T03:52:18.680Z,16.72
2023-07-12T03:54:45.336Z,16.71
2023-07-12T03:57:11.948Z,16.71
2023-07-12T03:59:38.567Z,16.62
2023-07-12T04:02:05.417Z,16.75
2023-07-12T04:04:32.024Z,16.75
2023-07-12T04:06:58.616Z,16.73
2023-07-12T04:09:25.279Z,16.79
2023-07-12T04:11:51.855Z,16.77
2023-07-12T04:14:18.529Z,16.76
2023-07-12T04:16:47.920Z,16.76
2023-07-12T04:19:14.594Z,16.75
2023-07-12T04:21:41.225Z,16.69
2023-07-12T04:24:08.045Z,16.71
2023-07-12T04:26:34.645Z,16.78
2023-07-12T04:29:02.414Z,16.86
2023-07-12T04:31:29.492Z,16.78
2023-07-12T04:33:56.227Z,16.75
2023-07-12T04:36:24.934Z,16.88
2023-07-12T04:38:51.564Z,16.94
2023-07-12T04:41:18.316Z,16.96
2023-07-12T04:43:44.927Z,17.07
2023-07-12T04:46:11.526Z,17.09
2023-07-12T04:48:38.109Z,16.99
2023-07-12T04:51:06.265Z,17.02
2023-07-12T04:53:34.779Z,16.95
2023-07-12T04:56:01.864Z,17.00
2023-07-12T04:58:28.425Z,17.02
2023-07-12T05:00:56.453Z,17.06
2023-07-12T05:03:23.610Z,17.14
2023-07-12T05:05:50.744Z,17.13
2023-07-12T05:08:17.476Z,17.14
2023-07-12T05:10:44.094Z,17.11
2023-07-12T05:13:11.426Z,17.00
2023-07-12T05:15:38.142Z,17.20
2023-07-12T05:18:04.901Z,17.34
2023-07-12T05:20:32.812Z,17.54
2023-07-12T05:22:59.653Z,17.84
2023-07-12T05:25:26.273Z,18.15
2023-07-12T05:27:52.929Z,18.75
2023-07-12T05:30:19.581Z,19.04
2023-07-12T05:32:46.227Z,19.01
2023-07-12T05:35:13.125Z,18.85
2023-07-12T05:37:39.864Z,18.66
2023-07-12T05:40:07.337Z,19.24
2023-07-12T05:42:34.209Z,19.17
2023-07-12T05:45:01.576Z,18.55
2023-07-12T05:47:28.312Z,18.61
2023-07-12T05:49:55.313Z,18.28
2023-07-12T05:52:21.918Z,18.15
2023-07-12T05:54:48.582Z,17.98
2023-07-12T05:57:15.198Z,17.84
2023-07-12T05:59:41.849Z,17.75
2023-07-12T06:02:14.135Z,17.77
2023-07-12T06:04:41.461Z,17.93
2023-07-12T06:07:08.124Z,18.07
2023-07-12T06:09:34.796Z,17.93
2023-07-12T06:12:01.380Z,17.82
2023-07-12T06:14:27.970Z,17.80
2023-07-12T06:16:54.597Z,17.91
2023-07-12T06:19:21.176Z,17.98
2023-07-12T06:21:47.757Z,17.96
2023-07-12T06:24:14.371Z,17.88
2023-07-12T06:26:40.944Z,17.70
2023-07-12T06:29:07.547Z,17.64
2023-07-12T06:31:34.199Z,17.62
2023-07-12T06:34:03.374Z,17.59
2023-07-12T06:36:29.986Z,17.73
2023-07-12T06:38:56.793Z,18.07
2023-07-12T06:41:23.952Z,18.61
2023-07-12T06:43:50.568Z,18.78
2023-07-12T06:46:18.154Z,18.55
2023-07-12T06:48:44.910Z,18.28
2023-07-12T06:51:11.550Z,18.22
2023-07-12T06:53:38.358Z,18.31
2023-07-12T06:56:05.226Z,18.34
2023-07-12T06:58:31.848Z,18.91
2023-07-12T07:00:58.503Z,19.97
2023-07-12T07:03:25.154Z,19.90
2023-07-12T07:05:51.792Z,19.37
2023-07-12T07:08:20.584Z,20.39
2023-07-12T07:10:52.200Z,20.43
2023-07-12T07:13:18.894Z,20.11
2023-07-12T07:15:47.290Z,21.04
2023-07-12T07:18:14.409Z,21.34
2023-07-12T07:20:42.060Z,20.98
2023-07-12T07:23:09.605Z,20.57
2023-07-12T07:25:36.309Z,20.45
2023-07-12T07:28:03.412Z,21.06
2023-07-12T07:30:31.224Z,21.12
2023-07-12T07:32:59.084Z,21.04
2023-07-12T07:35:26.826Z,21.33
2023-07-12T07:37:53.493Z,20.94
2023-07-12T07:40:20.237Z,21.58
2023-07-12T07:42:46.951Z,21.66
2023-07-12T07:45:13.593Z,21.55
2023-07-12T07:47:40.246Z,21.38
2023-07-12T07:50:08.073Z,21.50
2023-07-12T07:52:34.727Z,21.56
2023-07-12T07:55:01.885Z,22.17
2023-07-12T07:57:29.986Z,21.65
2023-07-12T07:59:56.878Z,21.14
2023-07-12T08:02:24.361Z,20.82
2023-07-12T08:04:51.355Z,20.45
2023-07-12T08:07:18.076Z,20.15
2023-07-12T08:09:44.947Z,20.23
2023-07-12T08:12:11.675Z,20.55
2023-07-12T08:14:38.334Z,20.96
2023-07-12T08:17:05.172Z,20.93
2023-07-12T08:19:31.779Z,20.86
2023-07-12T08:21:58.474Z,21.14
2023-07-12T08:24:25.094Z,21.87
2023-07-12T08:27:06.148Z,22.34
2023-07-12T08:29:34.653Z,22.67
2023-07-12T08:32:01.441Z,22.30
2023-07-12T08:34:28.225Z,22.05
2023-07-12T08:36:54.804Z,21.98
2023-07-12T08:39:21.362Z,22.44
2023-07-12T08:41:47.966Z,22.36
2023-07-12T08:44:17.832Z,22.16
2023-07-12T08:46:54.112Z,22.80
2023-07-12T08:49:20.907Z,23.31
2023-07-12T08:51:49.028Z,23.57
2023-07-12T08:54:23.359Z,23.06
2023-07-12T08:56:53.525Z,23.65
2023-07-12T08:59:21.667Z,23.90
2023-07-12T09:01:54.740Z,24.03
2023-07-12T09:04:29.287Z,23.89
2023-07-12T09:06:58.306Z,23.76
2023-07-12T09:09:27.742Z,23.58
2023-07-12T09:11:55.531Z,24.03
2023-07-12T09:14:25.084Z,23.51
2023-07-12T09:16:58.838Z,23.31
2023-07-12T09:19:32.437Z,22.78
2023-07-12T09:22:14.974Z,22.28
2023-07-12T09:24:55.392Z,22.07
2023-07-12T09:27:25.779Z,21.81
2023-07-12T09:30:03.634Z,21.86
2023-07-12T09:32:35.990Z,22.78
2023-07-12T09:35:40.870Z,22.26
2023-07-12T09:38:13.513Z,21.90
2023-07-12T09:40:46.106Z,21.88
2023-07-12T09:43:18.044Z,21.79
2023-07-12T09:46:13.098Z,22.17
2023-07-12T09:48:57.978Z,22.15
2023-07-12T09:51:32.191Z,21.77
2023-07-12T09:54:07.627Z,21.44
2023-07-12T09:56:46.182Z,21.42
2023-07-12T09:59:49.837Z,22.15
2023-07-12T10:02:36.704Z,22.64
2023-07-12T10:05:16.907Z,22.71
2023-07-12T10:07:54.467Z,22.01
2023-07-12T10:10:46.398Z,21.70
2023-07-12T10:13:37.750Z,22.55
2023-07-12T10:16:11.013Z,23.27
2023-07-12T10:18:39.608Z,23.30
2023-07-12T10:21:08.330Z,23.72
2023-07-12T10:23:43.860Z,23.34
2023-07-12T10:26:13.892Z,22.33
2023-07-12T10:29:08.278Z,21.38
2023-07-12T10:31:39.277Z,21.84
2023-07-12T10:34:29.353Z,22.26
2023-07-12T10:37:01.586Z,23.06
2023-07-12T10:39:28.642Z,23.61
2023-07-12T10:42:07.011Z,23.68
2023-07-12T10:44:38.701Z,23.54
2023-07-12T10:47:10.839Z,23.27
2023-07-12T10:50:06.065Z,22.56
2023-07-12T10:52:56.160Z,22.95
2023-07-12T10:55:38.851Z,23.49
2023-07-12T10:58:26.280Z,23.16
2023-07-12T11:00:54.993Z,22.49
2023-07-12T11:03:34.210Z,22.16
2023-07-12T11:06:27.686Z,22.09
2023-07-12T11:09:00.379Z,22.35
2023-07-12T11:11:31.330Z,22.60
2023-07-12T11:14:12.497Z,22.68
2023-07-12T11:16:48.908Z,22.78
2023-07-12T11:19:43.856Z,22.48
2023-07-12T11:22:18.902Z,22.44
2023-07-12T11:24:51.381Z,22.15
2023-07-12T11:27:45.972Z,22.70
2023-07-12T11:30:37.433Z,22.35
2023-07-12T11:33:10.919Z,22.62
2023-07-12T11:35:50.416Z,22.29
2023-07-12T11:38:33.132Z,22.03
2023-07-12T11:41:04.518Z,22.73
2023-07-12T11:43:35.583Z,23.18
2023-07-12T11:46:05.960Z,23.35
2023-07-12T11:48:35.053Z,23.46
2023-07-12T11:51:10.030Z,23.50
2023-07-12T11:53:37.531Z,23.47
2023-07-12T11:56:06.620Z,23.49
2023-07-12T11:58:35.475Z,23.60
2023-07-12T12:01:02.303Z,23.32
2023-07-12T12:03:28.993Z,23.46
2023-07-12T12:05:55.741Z,23.34
2023-07-12T12:08:29.055Z,23.03
2023-07-12T12:10:56.095Z,23.07
2023-07-12T12:13:27.970Z,23.58
2023-07-12T12:15:59.857Z,23.01
2023-07-12T12:18:26.784Z,22.81
2023-07-12T12:20:58.090Z,23.15
2023-07-12T12:23:38.941Z,22.96
2023-07-12T12:26:27.277Z,22.71
2023-07-12T12:29:14.019Z,22.98
2023-07-12T12:31:56.584Z,23.30
2023-07-12T12:34:28.378Z,23.34
2023-07-12T12:37:09.735Z,23.39
2023-07-12T12:39:36.857Z,23.11
2023-07-12T12:42:17.711Z,22.99
2023-07-12T12:44:44.310Z,22.77
2023-07-12T12:47:20.505Z,22.34
2023-07-12T12:55:09.650Z,23.16
2023-07-12T13:20:33.625Z,23.20
2023-07-12T13:23:00.359Z,23.20
2023-07-12T13:25:27.000Z,23.32
2023-07-12T13:27:56.183Z,23.13
2023-07-12T13:30:26.818Z,23.34
2023-07-12T13:32:53.930Z,23.37
2023-07-12T13:39:28.412Z,23.74
2023-07-12T13:40:43.412Z,23.76
2023-07-12T13:43:44.892Z,23.56
2023-07-12T13:46:02.334Z,23.36
2023-07-12T13:48:29.444Z,23.12
2023-07-12T13:50:57.244Z,22.73
2023-07-12T13:53:24.011Z,22.58
2023-07-12T13:56:00.258Z,22.62
2023-07-12T13:58:30.919Z,22.42
2023-07-12T14:03:34.094Z,22.19
2023-07-12T14:06:02.720Z,22.25
2023-07-12T14:10:58.956Z,22.73
2023-07-12T14:13:25.896Z,22.65
2023-07-12T14:15:52.553Z,22.65
2023-07-12T14:18:19.190Z,22.75
2023-07-12T14:20:47.637Z,22.78
2023-07-12T14:23:20.298Z,22.69
2023-07-12T14:25:46.860Z,22.62
2023-07-12T14:28:14.051Z,22.64
2023-07-12T14:33:31.099Z,22.31
2023-07-12T14:35:58.285Z,22.48
2023-07-12T14:38:25.292Z,22.36
2023-07-12T14:40:52.084Z,22.66
2023-07-12T14:43:18.951Z,22.55
2023-07-12T14:45:45.555Z,22.46
2023-07-12T14:48:13.049Z,22.24
2023-07-12T14:50:42.565Z,22.31
2023-07-12T14:53:22.252Z,22.57
2023-07-12T14:55:49.768Z,22.43
2023-07-12T14:58:19.948Z,22.67
2023-07-12T15:00:47.160Z,22.73
2023-07-12T15:03:22.774Z,22.80
2023-07-12T15:05:51.139Z,22.34
2023-07-12T15:08:33.946Z,22.61
2023-07-12T15:11:04.757Z,22.62
2023-07-12T15:13:32.233Z,22.57
2023-07-12T15:18:26.745Z,22.75
2023-07-12T15:21:00.619Z,22.73
2023-07-12T15:23:36.025Z,22.84
2023-07-12T15:26:02.763Z,23.09
2023-07-12T15:28:32.951Z,22.99
2023-07-12T15:30:59.735Z,22.89
2023-07-12T15:33:29.546Z,22.92
2023-07-12T15:35:58.630Z,23.02
2023-07-12T15:38:28.709Z,22.94
2023-07-12T15:40:57.183Z,22.92
2023-07-12T15:43:33.424Z,23.03
2023-07-12T15:46:01.788Z,22.82
2023-07-12T15:48:30.621Z,22.86
2023-07-12T15:51:26.734Z,22.82
2023-07-12T15:53:55.754Z,22.73
2023-07-12T15:56:28.776Z,22.59
2023-07-12T15:58:55.797Z,22.74
2023-07-12T16:01:25.073Z,22.64
2023-07-12T16:03:52.451Z,22.41
2023-07-12T16:09:00.752Z,22.53
2023-07-12T16:11:34.091Z,22.47
2023-07-12T16:14:10.046Z,22.47
2023-07-12T16:16:36.697Z,22.42
2023-07-12T16:19:03.469Z,22.35
2023-07-12T16:21:32.137Z,22.42
2023-07-12T16:24:00.068Z,22.34
2023-07-12T16:26:32.506Z,22.23
2023-07-12T16:29:00.474Z,22.20
2023-07-12T16:31:36.881Z,22.17
2023-07-12T16:34:11.782Z,22.16
2023-07-12T16:36:38.237Z,22.20
2023-07-12T16:39:06.416Z,22.00
2023-07-12T16:41:33.118Z,21.89
2023-07-12T16:43:59.850Z,21.90
2023-07-12T16:46:27.334Z,21.88
2023-07-12T16:48:54.716Z,21.92
2023-07-12T16:51:48.773Z,21.92
2023-07-12T16:54:15.363Z,21.84
2023-07-12T16:56:41.997Z,21.82
2023-07-12T16:59:08.673Z,21.84
2023-07-12T17:01:35.962Z,21.77
2023-07-12T17:04:02.940Z,21.85
2023-07-12T17:06:29.666Z,21.80
2023-07-12T17:08:57.168Z,21.57
2023-07-12T17:11:29.136Z,21.46
2023-07-12T17:13:56.194Z,21.43
2023-07-12T17:16:22.903Z,21.33
2023-07-12T17:18:49.528Z,21.34
2023-07-12T17:21:19.370Z,21.26
2023-07-12T17:23:48.502Z,21.17
2023-07-12T17:26:18.166Z,21.13
2023-07-12T17:28:46.857Z,21.18
2023-07-12T17:31:22.488Z,21.12
2023-07-12T17:33:49.545Z,21.02
2023-07-12T17:36:19.232Z,21.01
2023-07-12T17:38:46.788Z,20.99
2023-07-12T17:41:19.930Z,21.05
2023-07-12T17:43:47.105Z,20.96
2023-07-12T17:46:14.118Z,20.89
2023-07-12T17:48:41.813Z,20.88
2023-07-12T17:51:29.005Z,20.83
2023-07-12T17:53:56.564Z,20.68
2023-07-12T17:56:23.915Z,20.69
2023-07-12T17:58:50.619Z,20.55
2023-07-12T18:01:22.548Z,20.62
2023-07-12T18:03:50.119Z,20.51
2023-07-12T18:06:19.129Z,20.33
2023-07-12T18:08:46.762Z,20.27
2023-07-12T18:11:21.197Z,20.18
2023-07-12T18:13:48.894Z,20.15
2023-07-12T18:16:15.606Z,20.08
2023-07-12T18:18:42.320Z,20.07
2023-07-12T18:21:25.507Z,20.01
2023-07-12T18:23:52.910Z,20.02
2023-07-12T18:26:20.968Z,19.94
2023-07-12T18:28:48.829Z,19.84
2023-07-12T18:31:19.065Z,19.80
2023-07-12T18:33:45.798Z,19.73
2023-07-12T18:36:23.115Z,19.73
2023-07-12T18:38:51.243Z,19.73
2023-07-12T18:41:21.201Z,19.73
2023-07-12T18:43:49.450Z,19.58
2023-07-12T18:46:16.959Z,19.55
2023-07-12T18:48:45.631Z,19.49
2023-07-12T18:51:13.886Z,19.46
2023-07-12T18:53:40.532Z,19.33
2023-07-12T18:56:16.505Z,19.33
2023-07-12T18:58:43.415Z,19.29
2023-07-12T19:01:16.166Z,19.22
2023-07-12T19:03:43.197Z,19.16
2023-07-12T19:06:22.828Z,19.14
2023-07-12T19:08:49.964Z,19.03
2023-07-12T19:11:39.998Z,19.14
2023-07-12T19:14:13.668Z,19.05
2023-07-12T19:16:40.621Z,18.87
2023-07-12T19:19:07.329Z,18.86
2023-07-12T19:21:36.825Z,18.81
2023-07-12T19:24:04.662Z,18.71
2023-07-12T19:26:33.593Z,18.68
2023-07-12T19:29:00.462Z,18.60
2023-07-12T19:31:32.354Z,18.52
2023-07-12T19:33:59.814Z,18.54
2023-07-12T19:36:28.237Z,18.55
2023-07-12T19:38:55.939Z,18.52
2023-07-12T19:41:32.286Z,18.61
2023-07-12T19:43:58.897Z,18.50
2023-07-12T19:46:25.623Z,18.46
2023-07-12T19:48:52.617Z,18.36
2023-07-12T19:51:21.542Z,18.37
2023-07-12T19:53:52.239Z,18.35
2023-07-12T19:56:18.987Z,18.27
2023-07-12T19:58:46.447Z,18.19
2023-07-12T20:01:19.678Z,18.16
2023-07-12T20:03:46.704Z,18.20
2023-07-12T20:06:14.360Z,18.12
2023-07-12T20:08:41.833Z,18.14
2023-07-12T20:11:09.343Z,18.14
2023-07-12T20:13:35.900Z,18.17
2023-07-12T20:16:02.657Z,18.10
2023-07-12T20:18:30.042Z,18.13
2023-07-12T20:20:56.636Z,18.04
2023-07-12T20:23:23.945Z,18.01
2023-07-12T20:25:52.492Z,18.03
2023-07-12T20:28:20.324Z,17.99
2023-07-12T20:30:48.015Z,18.03
2023-07-12T20:33:17.995Z,18.00
2023-07-12T20:35:44.619Z,17.89
2023-07-12T20:38:11.490Z,17.84
2023-07-12T20:40:38.514Z,17.79
2023-07-12T20:43:06.033Z,17.83
2023-07-12T20:45:34.050Z,17.81
2023-07-12T20:48:02.672Z,17.68
2023-07-12T20:50:29.503Z,17.75
2023-07-12T20:52:57.497Z,17.72
2023-07-12T20:55:29.022Z,17.64
2023-07-12T20:57:55.658Z,17.64
2023-07-12T21:03:02.830Z,17.59
2023-07-12T21:05:29.481Z,17.57
2023-07-12T21:07:56.104Z,17.53
2023-07-12T21:10:22.949Z,17.54
2023-07-12T21:12:49.687Z,17.50
2023-07-12T21:15:16.306Z,17.46
2023-07-12T21:17:43.119Z,17.36
2023-07-12T21:20:10.386Z,17.32
2023-07-12T21:22:39.373Z,17.32
2023-07-12T21:25:11.174Z,17.30
2023-07-12T21:27:38.218Z,17.25
2023-07-12T21:30:05.970Z,17.28
2023-07-12T21:32:33.956Z,17.26
2023-07-12T21:35:01.526Z,17.22
2023-07-12T21:37:28.137Z,17.22
2023-07-12T21:39:54.733Z,17.16
2023-07-12T21:42:21.359Z,17.18
2023-07-12T21:44:47.962Z,17.11
2023-07-12T21:47:15.378Z,17.15
2023-07-12T21:49:42.209Z,17.15
2023-07-12T21:52:09.174Z,17.19
2023-07-12T21:54:35.863Z,17.24
2023-07-12T21:57:02.529Z,17.27
2023-07-12T21:59:29.065Z,17.32
2023-07-12T22:01:55.669Z,17.28
2023-07-12T22:04:22.456Z,17.32
2023-07-12T22:06:49.061Z,17.30
2023-07-12T22:09:16.991Z,17.46
2023-07-12T22:11:43.729Z,17.40
2023-07-12T22:14:10.610Z,17.31
2023-07-12T22:16:37.576Z,17.34
2023-07-12T22:19:05.215Z,17.35
2023-07-12T22:21:33.542Z,17.29
2023-07-12T22:24:00.232Z,17.35
2023-07-12T22:26:29.118Z,17.39
2023-07-12T22:28:56.687Z,17.46
2023-07-12T22:31:23.520Z,17.42
2023-07-12T22:33:50.680Z,17.29
2023-07-12T22:36:17.443Z,17.12
2023-07-12T22:38:44.124Z,16.68
2023-07-12T22:41:12.157Z,16.29
2023-07-12T22:43:38.748Z,16.18
2023-07-12T22:46:06.641Z,16.05
2023-07-12T22:48:34.596Z,15.96
2023-07-12T22:51:02.504Z,15.83
2023-07-12T22:53:30.119Z,15.81
2023-07-12T22:55:58.321Z,15.77
2023-07-12T22:58:25.762Z,15.75
2023-07-12T23:00:52.465Z,15.62
2023-07-12T23:03:19.160Z,15.67
2023-07-12T23:05:45.753Z,15.75
2023-07-12T23:08:12.821Z,15.73
2023-07-12T23:10:39.424Z,15.65
2023-07-12T23:13:06.892Z,15.66
2023-07-12T23:15:34.161Z,15.63
2023-07-12T23:18:01.206Z,15.61
2023-07-12T23:20:27.948Z,15.60
2023-07-12T23:22:54.541Z,15.52
2023-07-12T23:25:26.517Z,15.55
2023-07-12T23:27:57.344Z,15.54
2023-07-12T23:30:24.902Z,15.56
2023-07-12T23:32:52.825Z,15.54
2023-07-12T23:35:19.708Z,15.68
2023-07-12T23:37:46.447Z,15.68
2023-07-12T23:40:14.643Z,15.69
2023-07-12T23:42:41.272Z,15.73
2023-07-12T23:45:10.944Z,15.70
2023-07-12T23:47:37.590Z,15.67
2023-07-12T23:50:04.510Z,15.71
2023-07-12T23:52:31.096Z,15.75
2023-07-12T23:54:57.829Z,15.74
2023-07-12T23:57:24.376Z,15.72
2023-07-12T23:59:53.549Z,15.75
